createdAt,value
2022-10-22T00:01:11.601Z,96053.00
2022-10-22T00:03:41.319Z,96046.52
2022-10-22T00:06:09.437Z,96040.62
2022-10-22T00:08:37.577Z,96039.80
2022-10-22T00:11:23.806Z,96040.71
2022-10-22T00:13:51.775Z,96040.08
2022-10-22T00:16:20.085Z,96038.30
2022-10-22T00:18:48.208Z,96038.18
2022-10-22T00:21:16.163Z,96029.91
2022-10-22T00:23:44.235Z,96028.64
2022-10-22T00:26:12.991Z,96024.71
2022-10-22T00:28:41.686Z,96021.38
2022-10-22T00:31:10.055Z,96026.10
2022-10-22T00:33:37.999Z,96022.66
2022-10-22T00:36:06.372Z,96026.62
2022-10-22T00:38:34.788Z,96027.95
2022-10-22T00:41:02.804Z,96028.16
2022-10-22T00:43:30.823Z,96026.80
2022-10-22T00:45:58.877Z,96024.31
2022-10-22T00:48:29.897Z,96022.73
2022-10-22T00:51:06.453Z,96020.49
2022-10-22T00:53:41.695Z,96024.50
2022-10-22T00:56:10.782Z,96026.88
2022-10-22T00:58:52.681Z,96029.99
2022-10-22T01:01:25.315Z,96024.19
2022-10-22T01:03:53.961Z,96024.98
2022-10-22T01:06:26.272Z,96031.39
2022-10-22T01:09:09.889Z,96034.09
2022-10-22T01:11:52.865Z,96024.35
2022-10-22T01:14:45.427Z,96019.20
2022-10-22T01:17:28.347Z,96015.91
2022-10-22T01:20:08.464Z,96019.30
2022-10-22T01:22:43.238Z,96018.09
2022-10-22T01:25:19.925Z,96019.50
2022-10-22T01:28:23.997Z,96017.17
2022-10-22T01:30:56.628Z,96018.54
2022-10-22T01:33:26.121Z,96022.77
2022-10-22T01:35:55.291Z,96020.12
2022-10-22T01:38:25.274Z,96017.42
2022-10-22T01:40:54.800Z,96016.55
2022-10-22T01:43:22.973Z,96014.21
2022-10-22T01:45:54.100Z,96013.34
2022-10-22T01:48:40.352Z,96014.08
2022-10-22T01:51:29.671Z,96019.20
2022-10-22T01:54:08.798Z,96022.95
2022-10-22T01:57:03.939Z,96019.48
2022-10-22T01:59:45.373Z,96012.95
2022-10-22T02:02:23.118Z,96003.66
2022-10-22T02:05:03.339Z,95997.79
2022-10-22T02:07:39.643Z,96001.27
2022-10-22T02:10:09.573Z,96005.05
2022-10-22T02:12:39.609Z,96006.13
2022-10-22T02:15:09.208Z,96002.63
2022-10-22T02:17:39.237Z,96003.73
2022-10-22T02:20:17.006Z,96004.06
2022-10-22T02:22:46.611Z,96001.91
2022-10-22T02:25:15.237Z,95998.91
2022-10-22T02:28:26.964Z,96001.88
2022-10-22T02:31:00.431Z,96004.98
2022-10-22T02:33:32.700Z,96004.90
2022-10-22T02:36:02.680Z,96005.20
2022-10-22T02:38:33.143Z,96004.20
2022-10-22T02:41:01.849Z,96010.29
2022-10-22T02:43:30.057Z,96015.38
2022-10-22T02:45:58.186Z,96017.73
2022-10-22T02:48:26.338Z,96017.69
2022-10-22T02:50:54.974Z,96015.91
2022-10-22T02:53:23.054Z,96014.87
2022-10-22T02:55:51.165Z,96011.89
2022-10-22T02:58:19.195Z,96008.75
2022-10-22T03:00:48.494Z,96000.90
2022-10-22T03:03:16.437Z,95999.48
2022-10-22T03:05:44.361Z,95994.57
2022-10-22T03:08:13.252Z,95996.38
2022-10-22T03:10:41.326Z,95998.13
2022-10-22T03:13:09.323Z,96004.95
2022-10-22T03:15:37.348Z,96011.30
2022-10-22T03:18:05.668Z,96009.06
2022-10-22T03:20:33.735Z,96012.66
2022-10-22T03:23:02.725Z,96014.55
2022-10-22T03:25:34.526Z,96013.87
2022-10-22T03:28:07.946Z,96008.77
2022-10-22T03:30:36.870Z,96004.44
2022-10-22T03:33:04.860Z,95994.89
2022-10-22T03:35:37.064Z,95999.61
2022-10-22T03:38:05.135Z,96010.55
2022-10-22T03:40:33.084Z,96018.77
2022-10-22T03:43:01.162Z,96014.15
2022-10-22T03:45:29.138Z,96019.33
2022-10-22T03:47:57.152Z,96017.71
2022-10-22T03:50:25.265Z,96017.14
2022-10-22T03:52:53.879Z,96024.20
2022-10-22T03:55:21.801Z,96012.49
2022-10-22T03:57:50.214Z,96009.11
2022-10-22T04:00:18.440Z,96006.05
2022-10-22T04:02:46.501Z,96006.59
2022-10-22T04:07:47.381Z,95994.23
2022-10-22T04:10:15.728Z,95988.69
2022-10-22T04:12:43.674Z,95975.92
2022-10-22T04:15:11.764Z,95976.61
2022-10-22T04:17:40.381Z,95980.09
2022-10-22T04:20:10.480Z,95987.92
2022-10-22T04:22:38.488Z,95993.08
2022-10-22T04:25:06.578Z,95995.35
2022-10-22T04:27:35.255Z,95997.05
2022-10-22T04:30:05.506Z,95992.80
2022-10-22T04:32:33.504Z,95991.92
2022-10-22T04:35:01.460Z,95991.80
2022-10-22T04:37:29.473Z,95986.98
2022-10-22T04:39:58.299Z,95992.35
2022-10-22T04:42:26.486Z,95995.34
2022-10-22T04:44:54.473Z,95988.33
2022-10-22T04:47:22.479Z,95990.81
2022-10-22T04:49:50.405Z,95990.27
2022-10-22T04:52:18.455Z,95992.23
2022-10-22T04:54:47.061Z,96002.67
2022-10-22T04:57:15.111Z,96004.41
2022-10-22T04:59:43.081Z,96000.79
2022-10-22T05:02:11.027Z,95991.95
2022-10-22T05:04:39.048Z,95995.05
2022-10-22T05:07:07.160Z,95990.34
2022-10-22T05:09:35.284Z,95984.27
2022-10-22T05:12:03.291Z,95980.91
2022-10-22T05:14:31.422Z,95977.27
2022-10-22T05:16:59.591Z,95980.19
2022-10-22T05:19:30.118Z,95979.67
2022-10-22T05:22:00.966Z,95975.59
2022-10-22T05:24:30.486Z,95973.14
2022-10-22T05:27:00.227Z,95966.85
2022-10-22T05:29:28.703Z,95961.63
2022-10-22T05:31:57.176Z,95953.92
2022-10-22T05:34:25.400Z,95958.34
2022-10-22T05:36:53.375Z,95963.02
2022-10-22T05:39:21.444Z,95972.48
2022-10-22T05:41:49.458Z,95981.58
2022-10-22T05:44:17.472Z,95987.35
2022-10-22T05:46:45.796Z,95992.63
2022-10-22T05:49:15.699Z,95997.20
2022-10-22T05:51:43.924Z,96002.19
2022-10-22T05:54:20.075Z,96012.11
2022-10-22T05:56:48.272Z,96013.70
2022-10-22T05:59:16.352Z,96006.17
2022-10-22T06:01:44.686Z,96016.39
2022-10-22T06:04:13.885Z,96021.77
2022-10-22T06:06:51.260Z,96015.50
2022-10-22T06:09:31.726Z,96012.21
2022-10-22T06:11:59.991Z,96008.61
2022-10-22T06:14:29.554Z,96007.36
2022-10-22T06:17:00.321Z,96019.09
2022-10-22T06:19:30.110Z,96026.09
2022-10-22T06:21:58.274Z,96027.86
2022-10-22T06:24:26.353Z,96016.78
2022-10-22T06:26:54.358Z,96006.46
2022-10-22T06:29:22.528Z,95999.41
2022-10-22T06:31:51.795Z,95990.84
2022-10-22T06:34:19.942Z,95990.21
2022-10-22T06:36:48.029Z,96000.41
2022-10-22T06:39:18.087Z,96013.55
2022-10-22T06:41:47.113Z,96023.98
2022-10-22T06:44:19.500Z,96030.85
2022-10-22T06:46:52.322Z,96047.90
2022-10-22T06:49:21.232Z,96059.51
2022-10-22T06:51:53.682Z,96053.77
2022-10-22T06:54:23.161Z,96046.63
2022-10-22T06:56:51.176Z,96056.77
2022-10-22T06:59:19.224Z,96058.83
2022-10-22T07:01:47.274Z,96065.77
2022-10-22T07:04:15.723Z,96069.27
2022-10-22T07:06:43.718Z,96059.84
2022-10-22T07:09:11.947Z,96054.39
2022-10-22T07:11:45.633Z,96050.83
2022-10-22T07:14:14.715Z,96059.33
2022-10-22T07:16:43.322Z,96062.70
2022-10-22T07:19:11.742Z,96062.88
2022-10-22T07:21:40.122Z,96064.09
2022-10-22T07:24:08.516Z,96062.14
2022-10-22T07:26:37.051Z,96053.13
2022-10-22T07:29:06.442Z,96049.75
2022-10-22T07:31:34.533Z,96055.66
2022-10-22T07:34:02.717Z,96058.20
2022-10-22T07:36:30.694Z,96067.04
2022-10-22T07:38:59.839Z,96064.11
2022-10-22T07:41:29.849Z,96061.16
2022-10-22T07:43:58.332Z,96065.84
2022-10-22T07:46:27.542Z,96062.49
2022-10-22T07:48:55.620Z,96054.82
2022-10-22T07:51:23.989Z,96054.56
2022-10-22T07:53:52.057Z,96054.19
2022-10-22T07:56:20.960Z,96053.96
2022-10-22T07:58:49.087Z,96056.91
2022-10-22T08:01:17.249Z,96047.02
2022-10-22T08:03:45.318Z,96034.89
2022-10-22T08:06:15.065Z,96020.66
2022-10-22T08:08:47.842Z,96024.54
2022-10-22T08:11:16.136Z,96029.39
2022-10-22T08:13:45.595Z,96037.97
2022-10-22T08:16:15.041Z,96041.57
2022-10-22T08:18:43.186Z,96037.05
2022-10-22T08:21:12.627Z,96036.41
2022-10-22T08:23:40.870Z,96044.73
2022-10-22T08:26:09.256Z,96046.49
2022-10-22T08:28:37.419Z,96046.83
2022-10-22T08:31:07.961Z,96051.27
2022-10-22T08:33:37.029Z,96054.34
2022-10-22T08:36:06.031Z,96057.16
2022-10-22T08:38:35.419Z,96058.91
2022-10-22T08:41:18.596Z,96057.82
2022-10-22T08:44:14.787Z,96057.20
2022-10-22T08:46:55.202Z,96068.73
2022-10-22T08:49:28.681Z,96082.15
2022-10-22T08:52:00.345Z,96079.06
2022-10-22T08:54:54.672Z,96076.48
2022-10-22T08:57:51.388Z,96077.88
2022-10-22T09:00:36.112Z,96088.77
2022-10-22T09:03:41.631Z,96086.80
2022-10-22T09:06:18.844Z,96079.80
2022-10-22T09:08:47.944Z,96073.77
2022-10-22T09:11:20.319Z,96077.77
2022-10-22T09:13:49.518Z,96083.45
2022-10-22T09:16:22.211Z,96082.63
2022-10-22T09:19:18.204Z,96083.27
2022-10-22T09:22:04.655Z,96065.75
2022-10-22T09:24:39.662Z,96058.44
2022-10-22T09:27:13.981Z,96051.86
2022-10-22T09:29:43.520Z,96047.98
2022-10-22T09:32:11.701Z,96044.98
2022-10-22T09:34:39.950Z,96045.59
2022-10-22T09:37:10.195Z,96059.64
2022-10-22T09:39:41.664Z,96069.58
2022-10-22T09:42:12.167Z,96071.98
2022-10-22T09:44:43.689Z,96080.30
2022-10-22T09:48:00.464Z,96087.84
2022-10-22T09:50:41.315Z,96096.08
2022-10-22T09:53:13.860Z,96092.49
2022-10-22T09:55:43.600Z,96088.30
2022-10-22T09:58:14.120Z,96088.67
2022-10-22T10:00:45.705Z,96085.39
2022-10-22T10:03:23.722Z,96082.72
2022-10-22T10:05:55.089Z,96079.58
2022-10-22T10:08:24.164Z,96078.41
2022-10-22T10:11:08.508Z,96078.29
2022-10-22T10:13:51.908Z,96085.73
2022-10-22T10:16:31.039Z,96089.90
2022-10-22T10:19:11.609Z,96091.54
2022-10-22T10:22:05.486Z,96088.61
2022-10-22T10:24:48.984Z,96086.64
2022-10-22T10:27:25.161Z,96085.39
2022-10-22T10:30:10.359Z,96087.22
2022-10-22T10:32:41.458Z,96088.80
2022-10-22T10:35:28.304Z,96085.30
2022-10-22T10:37:59.815Z,96091.18
2022-10-22T10:40:43.673Z,96089.17
2022-10-22T10:43:38.859Z,96091.67
2022-10-22T10:46:19.195Z,96089.93
2022-10-22T10:48:57.285Z,96092.39
2022-10-22T10:52:02.612Z,96091.86
2022-10-22T10:54:55.569Z,96097.73
2022-10-22T10:57:59.946Z,96100.55
2022-10-22T11:00:36.133Z,96095.20
2022-10-22T11:03:38.204Z,96096.31
2022-10-22T11:06:21.595Z,96094.78
2022-10-22T11:09:02.834Z,96092.48
2022-10-22T11:11:40.224Z,96085.58
2022-10-22T11:14:14.701Z,96082.69
2022-10-22T11:17:11.943Z,96081.42
2022-10-22T11:19:51.604Z,96078.66
2022-10-22T11:22:29.648Z,96076.00
2022-10-22T11:25:18.798Z,96069.48
2022-10-22T11:28:06.548Z,96065.23
2022-10-22T11:30:41.828Z,96061.23
2022-10-22T11:33:18.498Z,96065.23
2022-10-22T11:35:48.572Z,96060.91
2022-10-22T11:38:22.565Z,96060.83
2022-10-22T11:40:55.136Z,96057.91
2022-10-22T11:43:52.006Z,96056.48
2022-10-22T11:46:19.904Z,96050.13
2022-10-22T11:49:06.417Z,96043.70
2022-10-22T11:51:39.926Z,96042.48
2022-10-22T11:54:26.916Z,96040.67
2022-10-22T11:57:17.337Z,96037.59
2022-10-22T11:59:54.102Z,96038.27
2022-10-22T12:02:28.271Z,96033.41
2022-10-22T12:05:19.334Z,96038.17
2022-10-22T12:07:58.601Z,96038.63
2022-10-22T12:10:29.807Z,96034.39
2022-10-22T12:13:24.199Z,96036.80
2022-10-22T12:15:57.487Z,96034.93
2022-10-22T12:18:41.472Z,96034.79
2022-10-22T12:21:14.069Z,96037.21
2022-10-22T12:23:44.702Z,96039.33
2022-10-22T12:26:27.343Z,96039.66
2022-10-22T12:29:03.369Z,96038.02
2022-10-22T12:31:35.983Z,96032.56
2022-10-22T12:34:04.568Z,96034.66
2022-10-22T12:36:37.065Z,96037.84
2022-10-22T12:39:13.240Z,96044.42
2022-10-22T12:41:41.990Z,96044.06
2022-10-22T12:44:16.270Z,96035.16
2022-10-22T12:46:47.438Z,96027.73
2022-10-22T12:49:22.578Z,96027.11
2022-10-22T12:51:50.645Z,96025.98
2022-10-22T12:54:27.154Z,96026.69
2022-10-22T12:56:56.467Z,96028.88
2022-10-22T12:59:39.174Z,96027.20
2022-10-22T13:02:27.409Z,96025.36
2022-10-22T13:05:14.449Z,96022.31
2022-10-22T13:07:48.999Z,96024.07
2022-10-22T13:10:25.603Z,96024.48
2022-10-22T13:12:59.219Z,96025.06
2022-10-22T13:15:35.830Z,96029.40
2022-10-22T13:18:23.137Z,96032.83
2022-10-22T13:21:01.966Z,96033.93
2022-10-22T13:23:33.912Z,96028.73
2022-10-22T13:26:17.041Z,96023.45
2022-10-22T13:28:54.742Z,96022.79
2022-10-22T13:31:29.118Z,96024.38
2022-10-22T13:34:03.683Z,96029.22
2022-10-22T13:36:34.721Z,96026.46
2022-10-22T13:39:04.035Z,96024.77
2022-10-22T13:41:34.787Z,96022.39
2022-10-22T13:44:03.015Z,96018.59
2022-10-22T13:46:31.625Z,96016.41
2022-10-22T13:49:00.668Z,96010.72
2022-10-22T13:51:35.879Z,96010.04
2022-10-22T13:54:09.553Z,96005.95
2022-10-22T13:56:37.571Z,96001.52
2022-10-22T13:59:05.534Z,96003.00
2022-10-22T14:01:33.522Z,96006.88
2022-10-22T14:04:04.628Z,96004.24
2022-10-22T14:09:14.684Z,95998.27
2022-10-22T14:11:43.558Z,96000.23
2022-10-22T14:14:14.385Z,96000.31
2022-10-22T14:16:42.862Z,96004.49
2022-10-22T14:19:16.597Z,96008.19
2022-10-22T14:21:44.797Z,96007.36
2022-10-22T14:24:13.505Z,96010.56
2022-10-22T14:26:42.041Z,96012.52
2022-10-22T14:29:11.315Z,96016.73
2022-10-22T14:31:42.754Z,96014.90
2022-10-22T14:34:13.111Z,96017.74
2022-10-22T14:36:43.813Z,96021.27
2022-10-22T14:39:13.706Z,96022.64
2022-10-22T14:41:42.722Z,96024.28
2022-10-22T14:44:14.394Z,96024.90
2022-10-22T14:46:44.901Z,96028.84
2022-10-22T14:49:13.804Z,96033.44
2022-10-22T14:51:42.193Z,96036.20
2022-10-22T14:54:10.396Z,96035.04
2022-10-22T14:56:38.556Z,96038.23
2022-10-22T14:59:06.868Z,96030.34
2022-10-22T15:01:35.001Z,96035.13
2022-10-22T15:04:03.268Z,96036.46
2022-10-22T15:06:31.504Z,96033.77
2022-10-22T15:08:59.644Z,96033.70
2022-10-22T15:11:28.514Z,96030.19
2022-10-22T15:13:56.438Z,96030.73
2022-10-22T15:16:24.610Z,96036.36
2022-10-22T15:18:53.562Z,96035.02
2022-10-22T15:21:22.479Z,96034.88
2022-10-22T15:23:50.553Z,96036.13
2022-10-22T15:26:19.081Z,96035.98
2022-10-22T15:28:47.385Z,96036.80
2022-10-22T15:31:15.843Z,96030.06
2022-10-22T15:33:44.056Z,96025.47
2022-10-22T15:36:16.567Z,96027.05
2022-10-22T15:38:44.934Z,96026.39
2022-10-22T15:41:13.707Z,96028.72
2022-10-22T15:43:42.862Z,96027.34
2022-10-22T15:46:17.271Z,96030.70
2022-10-22T15:48:46.185Z,96034.94
2022-10-22T15:51:18.844Z,96031.34
2022-10-22T15:53:52.629Z,96033.10
2022-10-22T15:56:21.521Z,96041.56
2022-10-22T15:58:53.717Z,96042.95
2022-10-22T16:01:21.950Z,96047.90
2022-10-22T16:04:00.374Z,96051.03
2022-10-22T16:06:33.368Z,96052.44
2022-10-22T16:09:03.670Z,96056.38
2022-10-22T16:11:32.364Z,96057.27
2022-10-22T16:14:01.537Z,96057.80
2022-10-22T16:16:32.883Z,96059.20
2022-10-22T16:19:01.509Z,96056.84
2022-10-22T16:21:30.319Z,96054.36
2022-10-22T16:24:05.921Z,96053.02
2022-10-22T16:26:35.644Z,96056.73
2022-10-22T16:29:05.396Z,96061.50
2022-10-22T16:31:33.447Z,96069.48
2022-10-22T16:34:01.485Z,96071.52
2022-10-22T16:36:29.519Z,96073.16
2022-10-22T16:38:57.538Z,96074.49
2022-10-22T16:41:26.073Z,96077.88
2022-10-22T16:43:55.480Z,96079.33
2022-10-22T16:46:23.566Z,96080.75
2022-10-22T16:48:52.987Z,96082.48
2022-10-22T16:51:24.055Z,96086.92
2022-10-22T16:53:52.804Z,96089.77
2022-10-22T16:56:21.491Z,96096.18
2022-10-22T16:58:53.811Z,96098.68
2022-10-22T17:01:26.032Z,96097.39
2022-10-22T17:03:57.043Z,96097.84
2022-10-22T17:06:25.566Z,96102.09
2022-10-22T17:08:54.262Z,96103.88
2022-10-22T17:11:24.732Z,96107.21
2022-10-22T17:13:54.488Z,96107.83
2022-10-22T17:16:24.398Z,96102.60
2022-10-22T17:18:54.869Z,96098.30
2022-10-22T17:21:24.077Z,96102.48
2022-10-22T17:23:58.769Z,96103.96
2022-10-22T17:26:27.075Z,96101.92
2022-10-22T17:28:55.454Z,96102.85
2022-10-22T17:31:23.407Z,96102.35
2022-10-22T17:33:53.861Z,96103.42
2022-10-22T17:36:23.474Z,96103.09
2022-10-22T17:38:57.197Z,96102.02
2022-10-22T17:41:30.957Z,96101.92
2022-10-22T17:44:01.770Z,96107.65
2022-10-22T17:46:31.437Z,96105.17
2022-10-22T17:49:05.446Z,96107.04
2022-10-22T17:51:33.739Z,96110.30
2022-10-22T17:54:03.567Z,96115.12
2022-10-22T17:56:34.301Z,96116.96
2022-10-22T17:59:02.501Z,96118.92
2022-10-22T18:01:33.280Z,96122.06
2022-10-22T18:04:04.340Z,96123.09
2022-10-22T18:06:32.646Z,96125.60
2022-10-22T18:09:04.640Z,96126.35
2022-10-22T18:11:34.445Z,96131.04
2022-10-22T18:14:02.806Z,96131.66
2022-10-22T18:16:30.745Z,96136.11
2022-10-22T18:18:58.975Z,96138.13
2022-10-22T18:21:31.472Z,96137.67
2022-10-22T18:23:59.754Z,96141.34
2022-10-22T18:26:27.789Z,96142.34
2022-10-22T18:28:57.237Z,96143.01
2022-10-22T18:31:27.144Z,96147.40
2022-10-22T18:33:57.250Z,96150.42
2022-10-22T18:36:26.614Z,96149.58
2022-10-22T18:38:56.253Z,96150.93
2022-10-22T18:41:24.884Z,96143.81
2022-10-22T18:43:56.472Z,96138.12
2022-10-22T18:46:25.779Z,96147.51
2022-10-22T18:48:58.316Z,96147.45
2022-10-22T18:51:30.655Z,96151.61
2022-10-22T18:54:11.339Z,96157.29
2022-10-22T18:56:47.552Z,96160.17
2022-10-22T18:59:19.302Z,96161.11
2022-10-22T19:01:47.655Z,96163.02
2022-10-22T19:04:15.717Z,96167.10
2022-10-22T19:06:45.754Z,96168.20
2022-10-22T19:09:15.826Z,96164.90
2022-10-22T19:11:45.196Z,96162.89
2022-10-22T19:14:17.312Z,96169.56
2022-10-22T19:16:45.710Z,96173.83
2022-10-22T19:19:17.898Z,96170.74
2022-10-22T19:21:46.681Z,96173.74
2022-10-22T19:24:16.840Z,96170.33
2022-10-22T19:26:46.296Z,96171.99
2022-10-22T19:29:16.776Z,96179.38
2022-10-22T19:31:45.114Z,96178.39
2022-10-22T19:34:14.177Z,96182.77
2022-10-22T19:36:42.281Z,96186.44
2022-10-22T19:39:10.620Z,96189.26
2022-10-22T19:41:39.075Z,96195.27
2022-10-22T19:44:07.359Z,96205.38
2022-10-22T19:46:35.416Z,96206.56
2022-10-22T19:49:04.957Z,96209.77
2022-10-22T19:51:34.546Z,96215.83
2022-10-22T19:54:06.298Z,96219.52
2022-10-22T19:56:36.091Z,96224.12
2022-10-22T19:59:05.878Z,96228.38
2022-10-22T20:01:34.105Z,96230.70
2022-10-22T20:04:09.625Z,96232.11
2022-10-22T20:06:37.668Z,96235.11
2022-10-22T20:09:06.650Z,96233.60
2022-10-22T20:11:34.696Z,96239.79
2022-10-22T20:14:02.932Z,96238.84
2022-10-22T20:16:31.793Z,96241.27
2022-10-22T20:19:02.517Z,96242.65
2022-10-22T20:21:30.946Z,96241.39
2022-10-22T20:23:59.431Z,96243.90
2022-10-22T20:26:28.499Z,96249.64
2022-10-22T20:28:58.486Z,96249.02
2022-10-22T20:31:28.774Z,96246.27
2022-10-22T20:33:59.007Z,96251.33
2022-10-22T20:36:28.976Z,96251.72
2022-10-22T20:39:02.915Z,96254.85
2022-10-22T20:41:37.833Z,96249.59
2022-10-22T20:44:06.954Z,96253.09
2022-10-22T20:46:37.352Z,96254.23
2022-10-22T20:49:09.135Z,96253.75
2022-10-22T20:51:38.200Z,96256.77
2022-10-22T20:54:08.096Z,96255.14
2022-10-22T20:56:39.785Z,96255.22
2022-10-22T20:59:11.116Z,96259.40
2022-10-22T21:01:48.104Z,96259.84
2022-10-22T21:04:18.016Z,96262.77
2022-10-22T21:06:46.477Z,96266.36
2022-10-22T21:09:15.198Z,96273.45
2022-10-22T21:11:43.842Z,96275.73
2022-10-22T21:14:14.042Z,96275.82
2022-10-22T21:16:44.115Z,96277.69
2022-10-22T21:19:12.347Z,96278.89
2022-10-22T21:21:40.843Z,96279.98
2022-10-22T21:24:09.448Z,96279.92
2022-10-22T21:26:38.484Z,96279.23
2022-10-22T21:29:07.395Z,96278.07
2022-10-22T21:31:36.078Z,96279.58
2022-10-22T21:34:04.268Z,96280.19
2022-10-22T21:36:34.914Z,96282.68
2022-10-22T21:39:03.201Z,96281.04
2022-10-22T21:41:31.349Z,96281.09
2022-10-22T21:43:59.769Z,96282.86
2022-10-22T21:46:28.972Z,96283.91
2022-10-22T21:49:01.241Z,96284.91
2022-10-22T21:51:32.387Z,96283.61
2022-10-22T21:54:00.781Z,96284.62
2022-10-22T21:56:32.827Z,96284.19
2022-10-22T21:59:02.269Z,96286.41
2022-10-22T22:01:30.715Z,96285.79
2022-10-22T22:03:59.223Z,96285.02
2022-10-22T22:06:30.717Z,96289.08
2022-10-22T22:09:00.257Z,96291.92
2022-10-22T22:11:28.670Z,96297.86
2022-10-22T22:13:58.033Z,96300.61
2022-10-22T22:16:29.632Z,96303.84
2022-10-22T22:21:39.506Z,96306.35
2022-10-22T22:24:11.027Z,96302.85
2022-10-22T22:26:40.860Z,96307.60
2022-10-22T22:29:10.589Z,96312.05
2022-10-22T22:31:40.146Z,96315.90
2022-10-22T22:34:12.855Z,96321.66
2022-10-22T22:36:43.856Z,96319.41
2022-10-22T22:39:14.481Z,96318.09
2022-10-22T22:41:43.382Z,96318.87
2022-10-22T22:44:12.289Z,96323.17
2022-10-22T22:46:40.565Z,96325.00
2022-10-22T22:49:09.100Z,96324.64
2022-10-22T22:51:37.053Z,96323.44
2022-10-22T22:54:05.086Z,96327.60
2022-10-22T22:56:34.746Z,96318.49
2022-10-22T22:59:04.945Z,96315.75
2022-10-22T23:01:35.815Z,96324.22
2022-10-22T23:04:12.174Z,96325.67
2022-10-22T23:06:40.582Z,96320.04
2022-10-22T23:09:11.173Z,96318.21
2022-10-22T23:11:40.436Z,96315.70
2022-10-22T23:14:11.748Z,96326.83
2022-10-22T23:16:42.724Z,96327.19
2022-10-22T23:19:10.731Z,96329.27
2022-10-22T23:21:41.092Z,96330.77
2022-10-22T23:24:14.015Z,96335.36
2022-10-22T23:26:47.998Z,96336.77
2022-10-22T23:29:19.069Z,96338.30
2022-10-22T23:31:48.409Z,96343.41
2022-10-22T23:34:25.328Z,96342.86
2022-10-22T23:36:55.796Z,96344.51
2022-10-22T23:39:26.485Z,96344.77
2022-10-22T23:41:55.497Z,96343.27
2022-10-22T23:44:24.305Z,96347.52
2022-10-22T23:46:52.345Z,96354.92
2022-10-22T23:49:20.218Z,96355.38
2022-10-22T23:51:48.182Z,96361.52
2022-10-22T23:54:18.649Z,96366.83
2022-10-22T23:56:47.786Z,96370.83
2022-10-22T23:59:16.248Z,96371.57
